Time;durP1;ratioP1;P1;durP2;ratioP2;P2;SDS_P1;SDS_P2;PMS_P1;PMS_P2;Temp;Humidity;BMP_temperature;BMP_pressure;BME280_temperature;BME280_humidity;BME280_pressure;Samples;Min_cycle;Max_cycle;Signal;HPM_P1;HPM_P2
2021/12/07 00:01:05;;;;;;;29.70;13.90;;;2.50;91.20;;;;;;5003280;28;20034;-69
2021/12/07 00:03:31;;;;;;;40.22;16.02;;;2.50;91.40;;;;;;5003864;28;20040;-68
2021/12/07 00:05:57;;;;;;;36.10;16.30;;;2.50;91.70;;;;;;5004956;28;20453;-68
2021/12/07 00:08:22;;;;;;;33.78;15.43;;;2.50;91.50;;;;;;5004545;28;20038;-68
2021/12/07 00:10:50;;;;;;;29.27;13.90;;;2.50;91.30;;;;;;5004355;28;20058;-68
2021/12/07 00:13:16;;;;;;;32.13;14.25;;;2.50;91.60;;;;;;5004483;28;20073;-68
2021/12/07 00:15:42;;;;;;;32.88;15.10;;;2.50;91.20;;;;;;5004705;28;20080;-68
2021/12/07 00:18:08;;;;;;;28.42;14.60;;;2.40;91.00;;;;;;5004289;28;20029;-68
2021/12/07 00:20:34;;;;;;;33.15;13.55;;;2.50;91.10;;;;;;5004306;28;20445;-69
2021/12/07 00:23:03;;;;;;;32.67;14.38;;;2.40;91.20;;;;;;5004570;28;20042;-67
2021/12/07 00:25:30;;;;;;;32.58;14.75;;;2.40;91.60;;;;;;5002400;28;20068;-68
2021/12/07 00:27:55;;;;;;;29.90;13.75;;;2.50;91.60;;;;;;5004410;28;20038;-68
2021/12/07 00:30:26;;;;;;;29.60;13.90;;;2.40;91.60;;;;;;5004559;28;20045;-68
2021/12/07 00:33:07;;;;;;;33.65;14.20;;;2.50;91.80;;;;;;5002320;28;20406;-68
2021/12/07 00:35:34;;;;;;;29.88;13.32;;;2.50;91.60;;;;;;4984625;28;20057;-68
2021/12/07 00:38:04;;;;;;;30.55;14.50;;;2.60;91.20;;;;;;4995979;28;20036;-68
2021/12/07 00:40:31;;;;;;;30.73;12.38;;;2.60;91.30;;;;;;4968706;28;20038;-68
2021/12/07 00:42:56;;;;;;;30.55;13.30;;;2.50;91.10;;;;;;4983164;28;20046;-67
2021/12/07 00:45:22;;;;;;;27.58;11.82;;;2.50;91.30;;;;;;4986286;28;20027;-69
2021/12/07 00:47:53;;;;;;;28.65;12.35;;;2.50;91.30;;;;;;4983847;28;20570;-68
2021/12/07 00:50:21;;;;;;;28.52;13.00;;;2.50;91.30;;;;;;4984642;28;20050;-66
2021/12/07 00:52:49;;;;;;;26.58;13.02;;;2.50;91.20;;;;;;4985203;28;20042;-67
2021/12/07 00:55:22;;;;;;;30.27;13.48;;;2.60;91.20;;;;;;4982847;28;20107;-69
2021/12/07 00:57:52;;;;;;;26.88;12.90;;;2.50;91.10;;;;;;4996808;28;20030;-67
2021/12/07 01:00:18;;;;;;;28.15;12.68;;;2.50;91.20;;;;;;4982968;28;20485;-67
2021/12/07 01:02:44;;;;;;;27.52;12.35;;;2.50;91.20;;;;;;4979744;28;20030;-67
2021/12/07 01:05:17;;;;;;;24.73;11.63;;;2.50;91.10;;;;;;4985452;28;20045;-68
2021/12/07 01:27:04;;;;;;;25.00;12.30;;;1.80;91.60;;;;;;4950283;28;20113;-67
2021/12/07 01:29:30;;;;;;;26.98;11.75;;;1.70;92.60;;;;;;4969562;28;20081;-67
2021/12/07 01:35:14;;;;;;;21.85;11.48;;;1.90;92.00;;;;;;4982070;28;20413;-66
2021/12/07 01:37:52;;;;;;;23.92;11.13;;;2.00;91.40;;;;;;4981894;28;20131;-67
2021/12/07 01:40:32;;;;;;;24.05;11.30;;;2.00;91.60;;;;;;4980614;28;20034;-66
2021/12/07 02:01:53;;;;;;;25.90;12.35;;;1.70;91.70;;;;;;4971512;28;20822;-66
2021/12/07 02:04:19;;;;;;;27.63;12.77;;;1.70;91.30;;;;;;4981213;28;20138;-67
2021/12/07 02:06:46;;;;;;;27.80;12.82;;;1.70;91.50;;;;;;4981023;28;20110;-68
2021/12/07 02:09:12;;;;;;;28.35;12.35;;;1.70;91.20;;;;;;4981544;28;20054;-69
2021/12/07 02:11:46;;;;;;;28.30;14.40;;;1.70;91.40;;;;;;4982155;28;20038;-68
2021/12/07 02:14:18;;;;;;;28.08;12.32;;;1.70;91.20;;;;;;4964016;28;20066;-68
2021/12/07 02:16:57;;;;;;;27.52;13.07;;;1.70;91.00;;;;;;4980772;28;20037;-68
2021/12/07 02:19:24;;;;;;;27.27;13.07;;;1.60;90.70;;;;;;4981084;28;20034;-67
2021/12/07 02:21:52;;;;;;;26.75;12.88;;;1.60;91.10;;;;;;4981316;28;20030;-67
2021/12/07 02:24:25;;;;;;;29.45;13.55;;;1.60;91.10;;;;;;4981242;28;20493;-67
2021/12/07 02:26:51;;;;;;;34.42;14.38;;;1.60;91.00;;;;;;4983320;28;20624;-67
2021/12/07 02:29:19;;;;;;;25.75;12.57;;;1.60;91.00;;;;;;4981576;28;20034;-67
2021/12/07 02:31:46;;;;;;;28.02;12.70;;;1.60;91.00;;;;;;4971026;28;20023;-67
2021/12/07 02:34:13;;;;;;;27.30;12.90;;;1.60;91.00;;;;;;4985259;28;20833;-67
2021/12/07 02:36:40;;;;;;;31.30;12.90;;;1.60;91.30;;;;;;4985187;28;20114;-67
2021/12/07 02:39:07;;;;;;;26.58;11.63;;;1.60;91.10;;;;;;4985611;28;20750;-67
2021/12/07 02:41:34;;;;;;;26.98;11.85;;;1.60;90.70;;;;;;4985314;28;20035;-67
2021/12/07 02:44:00;;;;;;;28.85;12.90;;;1.50;90.80;;;;;;4986085;28;20125;-67
2021/12/07 02:46:27;;;;;;;25.98;12.75;;;1.40;91.00;;;;;;4984995;28;20037;-67
2021/12/07 02:48:55;;;;;;;28.73;13.43;;;1.50;91.30;;;;;;4969149;28;20134;-67
2021/12/07 02:51:22;;;;;;;27.58;13.23;;;1.50;90.90;;;;;;4984751;28;20034;-67
2021/12/07 02:53:49;;;;;;;27.70;12.75;;;1.50;90.70;;;;;;4989719;28;20034;-67
2021/12/07 02:56:15;;;;;;;29.08;13.75;;;1.40;90.90;;;;;;4984772;28;20027;-67
2021/12/07 02:58:43;;;;;;;28.30;13.45;;;1.40;91.20;;;;;;4984735;28;20565;-67
2021/12/07 03:01:18;;;;;;;24.40;12.25;;;1.50;91.00;;;;;;4985117;28;20109;-67
2021/12/07 03:04:08;;;;;;;26.55;13.43;;;1.50;90.80;;;;;;4984595;28;20085;-67
2021/12/07 03:06:50;;;;;;;30.08;12.38;;;1.40;91.00;;;;;;4986269;28;20034;-67
2021/12/07 03:09:47;;;;;;;25.50;12.60;;;1.40;91.00;;;;;;4977261;28;20034;-67
2021/12/07 03:26:10;;;;;;;24.73;11.13;;;1.20;91.70;;;;;;4988983;28;20125;-67
2021/12/07 03:28:46;;;;;;;27.98;12.55;;;1.20;91.40;;;;;;4984501;28;20255;-67
2021/12/07 03:31:16;;;;;;;28.08;12.90;;;1.20;91.60;;;;;;4984610;28;20554;-67
2021/12/07 03:33:46;;;;;;;25.38;11.88;;;1.20;91.70;;;;;;4989945;28;20743;-67
2021/12/07 03:36:13;;;;;;;30.52;13.60;;;1.20;91.70;;;;;;4984145;28;20228;-67
2021/12/07 03:38:40;;;;;;;29.52;12.65;;;1.20;91.60;;;;;;4984057;28;20171;-67
2021/12/07 03:41:08;;;;;;;27.83;12.88;;;1.20;91.80;;;;;;4984076;28;20026;-67
2021/12/07 03:43:34;;;;;;;29.73;13.40;;;1.20;91.80;;;;;;4982799;28;20035;-67
2021/12/07 03:46:00;;;;;;;29.13;12.50;;;1.20;91.90;;;;;;4983658;28;20509;-67
2021/12/07 03:48:27;;;;;;;28.80;12.25;;;1.10;91.70;;;;;;4987850;28;20038;-67
2021/12/07 03:50:54;;;;;;;25.42;12.30;;;1.10;92.30;;;;;;4983965;28;20437;-67
2021/12/07 03:53:20;;;;;;;27.23;13.05;;;1.10;92.40;;;;;;4983656;28;20037;-67
2021/12/07 03:55:47;;;;;;;26.48;12.75;;;1.20;92.30;;;;;;4985245;28;20494;-67
2021/12/07 03:58:13;;;;;;;25.10;12.25;;;1.20;92.10;;;;;;4983600;28;20505;-67
2021/12/07 04:00:42;;;;;;;31.98;13.98;;;1.20;92.20;;;;;;4983546;28;20481;-67
2021/12/07 04:03:13;;;;;;;27.85;12.85;;;1.30;92.20;;;;;;4982169;28;20049;-67
2021/12/07 04:05:49;;;;;;;29.30;13.55;;;1.30;92.20;;;;;;4984582;28;20046;-67
2021/12/07 04:08:24;;;;;;;28.48;12.43;;;1.30;91.90;;;;;;4983209;28;20034;-67
2021/12/07 04:10:54;;;;;;;30.73;13.57;;;1.20;91.70;;;;;;4983419;28;20230;-67
2021/12/07 04:13:20;;;;;;;34.63;12.80;;;1.20;91.90;;;;;;4982118;28;20030;-67
2021/12/07 04:15:47;;;;;;;28.50;13.30;;;1.20;92.10;;;;;;4983773;28;20036;-67
2021/12/07 04:18:13;;;;;;;27.85;12.68;;;1.10;92.10;;;;;;4984701;28;20106;-67
2021/12/07 04:20:39;;;;;;;30.48;13.18;;;1.20;92.30;;;;;;4983593;28;20026;-67
2021/12/07 04:23:06;;;;;;;29.67;14.45;;;1.20;92.30;;;;;;4982997;28;20129;-67
2021/12/07 04:25:32;;;;;;;30.02;14.27;;;1.10;92.10;;;;;;4984738;28;20558;-67
2021/12/07 04:27:58;;;;;;;26.23;13.07;;;1.10;92.10;;;;;;4984655;28;20041;-67
2021/12/07 04:30:39;;;;;;;33.35;14.32;;;1.00;92.20;;;;;;4984744;28;20521;-67
2021/12/07 04:33:07;;;;;;;31.67;13.65;;;1.00;92.50;;;;;;4984420;28;20042;-67
2021/12/07 04:35:34;;;;;;;30.88;14.45;;;0.90;92.40;;;;;;4984438;28;20026;-67
2021/12/07 04:38:00;;;;;;;30.08;13.60;;;0.90;92.50;;;;;;4984681;28;20026;-67
2021/12/07 04:40:29;;;;;;;31.75;14.13;;;0.90;92.90;;;;;;4984746;28;20041;-67
2021/12/07 04:42:56;;;;;;;31.75;13.98;;;1.00;92.80;;;;;;4984543;28;20038;-67
2021/12/07 04:58:40;;;;;;;43.58;15.93;;;1.00;92.80;;;;;;4938895;28;20051;-69
2021/12/07 05:01:11;;;;;;;30.50;15.00;;;1.10;92.90;;;;;;4984111;28;20026;-69
2021/12/07 05:03:39;;;;;;;33.05;14.88;;;1.10;92.60;;;;;;4983664;28;20108;-69
2021/12/07 05:06:07;;;;;;;34.83;15.13;;;1.10;93.00;;;;;;4984001;28;20049;-69
2021/12/07 05:08:54;;;;;;;28.58;14.13;;;1.10;92.90;;;;;;4983697;28;20038;-69
2021/12/07 05:24:49;;;;;;;32.67;14.15;;;0.70;93.60;;;;;;4982302;28;20049;-69
2021/12/07 05:37:59;;;;;;;33.95;15.25;;;0.90;93.20;;;;;;4983652;28;20108;-69
2021/12/07 05:40:33;;;;;;;31.70;13.45;;;0.90;93.00;;;;;;4983403;28;20069;-69
2021/12/07 05:43:00;;;;;;;37.05;16.00;;;0.80;93.10;;;;;;4981934;28;20077;-69
2021/12/07 05:45:31;;;;;;;34.05;14.40;;;0.80;93.30;;;;;;4981773;28;20041;-69
2021/12/07 05:47:58;;;;;;;36.10;16.27;;;0.90;93.10;;;;;;4979615;28;20023;-71
2021/12/07 05:50:26;;;;;;;36.65;15.52;;;0.90;93.10;;;;;;4983663;28;20044;-69
2021/12/07 05:52:53;;;;;;;38.10;15.65;;;0.90;93.00;;;;;;4983487;28;20070;-69
2021/12/07 05:55:19;;;;;;;34.78;15.55;;;0.80;93.00;;;;;;4980876;28;20558;-69
2021/12/07 05:57:46;;;;;;;37.55;14.23;;;0.80;93.20;;;;;;4983076;28;20108;-69
2021/12/07 06:00:26;;;;;;;29.33;14.40;;;0.80;93.30;;;;;;4982639;28;20039;-69
2021/12/07 06:03:00;;;;;;;33.70;16.13;;;0.80;93.10;;;;;;4982921;28;20038;-69
2021/12/07 06:05:28;;;;;;;35.50;14.95;;;0.90;93.10;;;;;;4984211;28;20038;-69
2021/12/07 06:07:54;;;;;;;33.97;15.52;;;0.80;93.10;;;;;;4987072;28;20041;-67
2021/12/07 06:10:20;;;;;;;33.92;15.45;;;0.90;93.00;;;;;;4988172;28;20045;-69
2021/12/07 06:12:45;;;;;;;35.22;15.27;;;0.90;93.00;;;;;;4985642;28;20034;-68
2021/12/07 06:15:13;;;;;;;36.05;16.50;;;0.90;93.10;;;;;;4986306;28;20778;-70
2021/12/07 06:17:39;;;;;;;40.30;16.27;;;0.90;93.00;;;;;;4987459;28;20030;-68
2021/12/07 06:20:06;;;;;;;35.35;15.35;;;0.90;93.00;;;;;;4989273;28;20030;-67
2021/12/07 06:22:32;;;;;;;31.77;16.02;;;0.90;93.30;;;;;;4987952;28;20045;-67
2021/12/07 06:24:57;;;;;;;34.65;15.00;;;0.90;93.10;;;;;;4991384;28;20084;-70
2021/12/07 06:27:23;;;;;;;36.67;15.65;;;0.90;93.00;;;;;;4988329;28;20038;-67
2021/12/07 06:29:50;;;;;;;33.13;15.07;;;1.00;92.80;;;;;;4986867;28;20022;-69
2021/12/07 06:32:16;;;;;;;33.90;15.55;;;0.90;92.70;;;;;;4988617;28;20924;-67
2021/12/07 06:34:42;;;;;;;36.03;14.75;;;1.00;92.80;;;;;;4988449;28;20026;-67
2021/12/07 06:37:07;;;;;;;35.88;13.93;;;1.00;92.70;;;;;;4986573;28;20029;-67
2021/12/07 06:39:34;;;;;;;37.60;15.98;;;0.90;92.60;;;;;;4986767;28;20097;-67
2021/12/07 06:42:01;;;;;;;34.00;14.73;;;0.90;92.70;;;;;;4985550;28;20154;-67
2021/12/07 06:44:27;;;;;;;31.88;15.20;;;0.80;92.80;;;;;;4987496;28;20045;-67
2021/12/07 06:46:52;;;;;;;36.63;14.80;;;0.80;93.30;;;;;;4986404;28;20038;-67
2021/12/07 06:49:19;;;;;;;37.85;15.63;;;0.80;93.00;;;;;;4994271;28;20030;-67
2021/12/07 06:51:47;;;;;;;31.95;14.63;;;0.80;93.00;;;;;;4987547;28;20517;-67
2021/12/07 06:54:13;;;;;;;34.63;15.50;;;0.80;93.10;;;;;;4987813;28;20041;-69
2021/12/07 06:56:39;;;;;;;33.28;15.13;;;0.60;93.30;;;;;;4987920;28;20031;-68
2021/12/07 06:59:05;;;;;;;34.60;15.13;;;0.60;93.60;;;;;;4986541;28;20029;-67
2021/12/07 07:01:31;;;;;;;37.80;15.98;;;0.60;93.60;;;;;;4988908;28;20042;-67
2021/12/07 07:03:57;;;;;;;34.70;15.05;;;0.70;93.50;;;;;;4986906;28;20109;-69
2021/12/07 07:06:22;;;;;;;30.00;15.43;;;0.70;93.30;;;;;;4988729;28;20026;-67
2021/12/07 07:08:50;;;;;;;32.35;15.00;;;0.70;93.40;;;;;;4988859;28;20125;-67
2021/12/07 07:11:17;;;;;;;33.75;15.98;;;0.80;93.10;;;;;;4985929;28;20050;-67
2021/12/07 07:13:44;;;;;;;33.97;15.55;;;0.80;93.20;;;;;;4987462;28;20034;-67
2021/12/07 07:16:10;;;;;;;37.00;15.27;;;0.80;92.90;;;;;;4986698;28;20105;-67
2021/12/07 07:18:36;;;;;;;34.20;15.18;;;0.90;93.00;;;;;;4989458;28;20053;-67
2021/12/07 07:21:03;;;;;;;36.65;16.25;;;1.00;92.30;;;;;;4986015;28;20116;-67
2021/12/07 07:23:29;;;;;;;33.65;15.40;;;1.00;92.40;;;;;;4987171;28;20672;-67
2021/12/07 07:25:55;;;;;;;36.97;16.17;;;1.00;92.50;;;;;;4984987;28;20040;-67
2021/12/07 07:28:29;;;;;;;35.45;15.57;;;0.80;92.80;;;;;;4985622;28;20057;-69
2021/12/07 07:30:57;;;;;;;33.80;15.93;;;0.70;93.00;;;;;;4987950;28;20040;-68
2021/12/07 07:33:23;;;;;;;33.50;15.15;;;0.60;93.30;;;;;;4988063;28;20034;-67
2021/12/07 07:35:49;;;;;;;33.25;15.48;;;0.60;93.30;;;;;;4989300;28;20040;-67
2021/12/07 07:38:15;;;;;;;36.08;16.90;;;0.70;93.50;;;;;;4985507;28;20651;-67
2021/12/07 07:40:45;;;;;;;35.35;15.43;;;0.90;93.00;;;;;;4985939;28;20030;-67
2021/12/07 07:43:11;;;;;;;35.33;15.18;;;0.70;93.00;;;;;;4983877;28;20035;-67
2021/12/07 07:45:49;;;;;;;33.55;15.82;;;0.70;93.30;;;;;;4983869;28;20026;-68
2021/12/07 07:48:15;;;;;;;38.05;15.98;;;0.80;93.00;;;;;;4987439;28;20398;-68
2021/12/07 07:50:41;;;;;;;35.92;14.68;;;0.90;93.00;;;;;;4983267;28;20126;-68
2021/12/07 07:53:07;;;;;;;36.45;16.00;;;0.90;92.60;;;;;;4985948;28;20510;-67
2021/12/07 07:55:35;;;;;;;34.15;15.43;;;0.80;93.10;;;;;;4983462;28;20031;-68
2021/12/07 07:58:03;;;;;;;38.08;15.50;;;0.80;92.90;;;;;;4984919;28;20081;-68
2021/12/07 08:00:28;;;;;;;33.53;15.02;;;0.80;93.10;;;;;;4987357;28;20042;-68
2021/12/07 08:02:55;;;;;;;34.38;15.93;;;0.90;93.10;;;;;;4984608;28;20034;-68
2021/12/07 08:05:20;;;;;;;32.97;15.55;;;0.90;92.80;;;;;;4984777;28;20057;-68
2021/12/07 08:07:47;;;;;;;35.85;14.77;;;0.90;92.80;;;;;;4985195;28;20775;-69
2021/12/07 08:10:20;;;;;;;36.22;15.73;;;1.00;92.70;;;;;;4984404;28;20042;-68
2021/12/07 08:12:47;;;;;;;33.88;15.27;;;1.00;92.70;;;;;;4999658;28;20041;-68
2021/12/07 08:15:14;;;;;;;31.45;14.52;;;0.90;92.60;;;;;;4996052;28;20475;-68
2021/12/07 08:17:40;;;;;;;32.20;14.65;;;1.00;92.70;;;;;;4986006;28;20039;-67
2021/12/07 08:20:07;;;;;;;38.38;15.70;;;1.00;92.60;;;;;;4985839;28;20030;-67
2021/12/07 08:22:32;;;;;;;37.67;14.88;;;1.10;92.80;;;;;;4984843;28;20030;-69
2021/12/07 08:24:58;;;;;;;33.78;15.15;;;1.10;92.40;;;;;;4985218;28;20080;-67
2021/12/07 08:27:25;;;;;;;42.50;16.67;;;1.10;92.30;;;;;;4987491;28;20034;-69
2021/12/07 08:29:51;;;;;;;33.33;14.77;;;1.20;92.00;;;;;;4988811;28;20026;-71
2021/12/07 08:32:17;;;;;;;36.05;16.15;;;1.30;92.10;;;;;;4985035;28;20038;-67
2021/12/07 08:34:43;;;;;;;27.73;14.88;;;1.30;92.00;;;;;;4985212;28;20044;-68
2021/12/07 08:37:09;;;;;;;37.55;16.75;;;1.30;92.00;;;;;;4984757;28;20823;-68
2021/12/07 08:39:34;;;;;;;39.70;15.48;;;1.40;91.80;;;;;;4989525;28;20034;-68
2021/12/07 08:42:04;;;;;;;33.70;15.23;;;1.30;91.70;;;;;;4981907;28;20093;-67
2021/12/07 08:44:31;;;;;;;36.13;15.05;;;1.30;92.00;;;;;;4977900;28;20046;-67
2021/12/07 08:46:58;;;;;;;34.92;14.52;;;1.20;92.30;;;;;;4983163;28;20061;-69
2021/12/07 08:49:24;;;;;;;30.63;14.18;;;1.10;92.40;;;;;;4982547;28;20031;-67
2021/12/07 08:51:51;;;;;;;34.20;15.10;;;1.20;92.60;;;;;;4978177;28;20025;-67
2021/12/07 08:59:38;;;;;;;30.23;14.60;;;1.50;92.10;;;;;;4966613;28;20542;-70
2021/12/07 09:00:08;;;;;;;33.58;15.50;;;1.80;91.40;;;;;;4981422;28;20033;-69
2021/12/07 09:02:34;;;;;;;33.78;15.68;;;1.90;91.10;;;;;;4978424;28;20085;-69
2021/12/07 09:05:00;;;;;;;32.53;15.23;;;2.00;90.70;;;;;;4977665;28;20214;-69
2021/12/07 09:07:26;;;;;;;37.92;16.23;;;1.70;90.80;;;;;;4985103;28;20073;-67
2021/12/07 09:09:52;;;;;;;31.88;14.82;;;1.70;91.40;;;;;;4989013;28;20049;-70
2021/12/07 09:12:19;;;;;;;32.65;15.85;;;1.60;91.80;;;;;;4976164;28;20026;-65
2021/12/07 09:14:46;;;;;;;34.20;15.38;;;1.70;91.30;;;;;;4964082;28;20486;-66
2021/12/07 09:17:14;;;;;;;37.05;16.02;;;1.70;91.30;;;;;;4976219;28;20101;-67
2021/12/07 09:19:40;;;;;;;33.50;14.50;;;1.90;91.20;;;;;;4979112;28;20531;-67
2021/12/07 09:22:07;;;;;;;37.40;16.30;;;1.80;91.30;;;;;;4983270;28;20462;-68
2021/12/07 09:24:34;;;;;;;35.40;16.60;;;2.00;91.30;;;;;;4980879;28;20038;-67
2021/12/07 09:27:00;;;;;;;36.42;16.25;;;2.00;90.40;;;;;;4980280;28;20026;-69
2021/12/07 09:29:26;;;;;;;31.17;15.02;;;2.00;90.70;;;;;;4983386;28;20104;-70
2021/12/07 09:31:51;;;;;;;36.13;16.33;;;2.10;90.30;;;;;;4981967;28;20061;-70
2021/12/07 09:34:18;;;;;;;35.20;15.90;;;2.00;90.50;;;;;;4977567;28;20859;-70
2021/12/07 09:36:44;;;;;;;33.60;16.42;;;2.10;90.40;;;;;;4977964;28;20030;-69
2021/12/07 09:39:13;;;;;;;32.70;15.00;;;2.10;90.50;;;;;;4993771;28;20109;-70
2021/12/07 09:41:39;;;;;;;33.75;15.38;;;2.10;90.20;;;;;;4982507;28;20030;-70
2021/12/07 09:44:07;;;;;;;39.90;16.67;;;2.10;90.20;;;;;;4983873;28;20097;-70
2021/12/07 09:46:33;;;;;;;39.35;17.60;;;2.20;90.30;;;;;;4982911;28;20042;-70
2021/12/07 09:48:59;;;;;;;38.67;15.70;;;2.10;90.40;;;;;;4982962;28;20022;-70
2021/12/07 09:51:27;;;;;;;34.67;15.60;;;2.10;90.30;;;;;;4986327;28;20113;-70
2021/12/07 09:53:54;;;;;;;32.70;15.68;;;2.00;90.80;;;;;;4983761;28;20034;-69
2021/12/07 09:56:25;;;;;;;38.33;16.30;;;2.00;90.60;;;;;;4981577;28;20769;-72
2021/12/07 09:58:53;;;;;;;32.30;15.48;;;1.90;90.60;;;;;;4974706;28;20818;-71
2021/12/07 10:01:21;;;;;;;39.22;17.02;;;1.90;91.20;;;;;;4982515;28;20038;-71
2021/12/07 10:03:47;;;;;;;33.03;15.38;;;1.90;91.00;;;;;;4982596;28;20042;-72
2021/12/07 10:06:13;;;;;;;39.20;16.02;;;2.00;91.00;;;;;;4984325;28;20041;-72
2021/12/07 10:08:40;;;;;;;39.47;17.77;;;2.10;90.80;;;;;;4986820;28;20062;-70
2021/12/07 10:11:09;;;;;;;34.88;15.55;;;2.10;90.40;;;;;;4979861;28;20122;-69
2021/12/07 10:13:37;;;;;;;31.90;15.80;;;2.20;90.70;;;;;;4983811;28;20034;-69
2021/12/07 10:16:05;;;;;;;34.88;17.05;;;2.20;90.60;;;;;;4981172;28;20425;-69
2021/12/07 10:18:33;;;;;;;41.50;18.15;;;2.10;90.20;;;;;;4979730;28;20026;-68
2021/12/07 10:21:04;;;;;;;36.97;16.45;;;2.10;90.50;;;;;;4980127;28;20037;-69
2021/12/07 10:23:59;;;;;;;37.03;16.75;;;2.00;90.70;;;;;;4981428;28;20582;-66
2021/12/07 10:26:34;;;;;;;36.85;16.63;;;1.90;91.10;;;;;;4995380;28;20097;-69
2021/12/07 10:29:10;;;;;;;37.90;16.42;;;2.10;90.90;;;;;;4980011;28;20041;-68
2021/12/07 10:31:44;;;;;;;38.97;17.27;;;2.10;90.70;;;;;;4987037;28;20110;-69
2021/12/07 10:34:30;;;;;;;32.22;15.70;;;2.10;90.30;;;;;;4982110;28;20019;-68
2021/12/07 10:37:17;;;;;;;39.33;17.58;;;2.00;90.60;;;;;;4975770;28;20029;-69
2021/12/07 10:39:52;;;;;;;38.15;16.02;;;2.10;90.70;;;;;;4984019;28;20034;-70
2021/12/07 10:42:25;;;;;;;42.47;18.30;;;2.20;91.00;;;;;;4983251;28;20831;-69
2021/12/07 10:44:52;;;;;;;40.63;18.30;;;2.10;90.50;;;;;;4986464;28;20053;-69
2021/12/07 10:47:20;;;;;;;37.50;17.15;;;2.20;90.60;;;;;;4988579;28;20068;-69
2021/12/07 10:49:49;;;;;;;39.13;18.42;;;2.30;90.60;;;;;;4990376;28;20804;-70
2021/12/07 10:52:29;;;;;;;35.92;17.65;;;2.40;90.60;;;;;;4987167;28;20073;-69
2021/12/07 10:55:12;;;;;;;40.85;18.00;;;2.50;89.70;;;;;;4986610;28;20042;-69
2021/12/07 10:57:45;;;;;;;39.20;18.23;;;2.50;89.90;;;;;;4979224;28;20030;-70
2021/12/07 11:00:40;;;;;;;33.78;15.85;;;2.60;89.60;;;;;;4981125;28;20387;-69
2021/12/07 11:03:17;;;;;;;36.13;16.52;;;2.40;90.20;;;;;;4980357;28;20042;-69
2021/12/07 11:05:54;;;;;;;35.60;17.50;;;2.30;90.20;;;;;;4991385;28;20493;-68
2021/12/07 11:08:22;;;;;;;39.10;17.40;;;2.30;90.30;;;;;;4988921;28;20041;-68
2021/12/07 11:10:50;;;;;;;41.80;18.40;;;2.30;90.80;;;;;;4991099;28;20060;-68
2021/12/07 11:13:25;;;;;;;33.70;17.13;;;2.20;90.30;;;;;;4992231;28;20114;-67
2021/12/07 11:15:55;;;;;;;31.65;15.60;;;2.40;90.30;;;;;;4989673;28;20041;-69
2021/12/07 11:18:44;;;;;;;41.30;17.60;;;2.50;90.50;;;;;;4990925;28;20133;-67
2021/12/07 11:21:12;;;;;;;36.95;15.77;;;2.50;90.30;;;;;;4989237;28;20041;-68
2021/12/07 11:23:48;;;;;;;44.55;18.25;;;2.60;89.60;;;;;;4984941;28;20042;-68
2021/12/07 11:31:51;;;;;;;35.97;16.30;;;2.70;89.00;;;;;;4991549;28;20438;-68
2021/12/07 11:34:21;;;;;;;41.33;17.55;;;2.70;88.80;;;;;;4977971;28;20174;-68
2021/12/07 11:37:05;;;;;;;35.05;16.63;;;2.60;88.40;;;;;;4986174;28;20113;-65
2021/12/07 11:39:35;;;;;;;37.20;16.92;;;2.70;88.40;;;;;;4988340;28;20026;-69
2021/12/07 11:42:12;;;;;;;40.38;16.48;;;2.80;88.40;;;;;;4993163;28;20025;-66
2021/12/07 11:44:53;;;;;;;39.05;16.67;;;2.90;87.80;;;;;;4991934;28;20034;-65
2021/12/07 11:47:35;;;;;;;40.50;17.60;;;2.90;87.90;;;;;;4988050;28;20043;-63
2021/12/07 11:50:09;;;;;;;36.90;16.15;;;3.00;87.60;;;;;;4984696;28;20137;-64
2021/12/07 11:52:35;;;;;;;39.00;16.55;;;3.20;87.50;;;;;;4986386;28;20525;-63
2021/12/07 11:55:02;;;;;;;38.47;17.38;;;3.30;87.50;;;;;;4995369;28;20041;-63
2021/12/07 11:57:27;;;;;;;36.28;16.45;;;3.50;86.10;;;;;;4992466;28;20030;-65
2021/12/07 11:59:53;;;;;;;35.10;15.82;;;3.60;85.10;;;;;;4991781;28;20033;-64
2021/12/07 12:02:19;;;;;;;38.13;17.48;;;3.60;85.20;;;;;;4988554;28;20030;-64
2021/12/07 12:04:46;;;;;;;36.25;17.52;;;3.50;85.00;;;;;;4987603;28;20026;-63
2021/12/07 12:07:12;;;;;;;38.20;17.42;;;3.40;85.90;;;;;;4989756;28;20026;-65
2021/12/07 12:09:51;;;;;;;37.45;16.45;;;3.40;86.40;;;;;;4989835;28;20434;-65
2021/12/07 12:12:44;;;;;;;37.40;16.80;;;3.40;86.00;;;;;;4987466;28;20038;-64
2021/12/07 12:15:27;;;;;;;36.33;16.80;;;3.30;85.60;;;;;;4985403;28;20092;-68
2021/12/07 12:18:35;;;;;;;40.65;16.58;;;3.20;86.60;;;;;;4986716;28;20073;-68
2021/12/07 12:21:13;;;;;;;33.38;15.27;;;3.00;86.50;;;;;;4970399;28;20042;-64
2021/12/07 12:24:04;;;;;;;33.50;15.57;;;3.00;87.10;;;;;;4965319;28;20042;-65
2021/12/07 12:26:30;;;;;;;35.80;15.90;;;2.90;87.20;;;;;;4986347;28;20046;-65
2021/12/07 12:28:58;;;;;;;37.88;16.73;;;2.80;88.20;;;;;;4984860;28;20033;-65
2021/12/07 12:31:46;;;;;;;35.03;15.63;;;2.70;88.50;;;;;;4984093;28;20065;-64
2021/12/07 12:34:18;;;;;;;37.05;16.63;;;2.70;89.20;;;;;;4997051;28;20197;-64
2021/12/07 12:36:54;;;;;;;37.58;16.85;;;2.70;89.20;;;;;;4983618;28;20069;-65
2021/12/07 12:39:22;;;;;;;32.30;15.77;;;2.70;89.60;;;;;;4981399;28;20118;-64
2021/12/07 12:41:59;;;;;;;34.75;16.15;;;2.80;88.60;;;;;;4982926;28;20041;-66
2021/12/07 12:44:26;;;;;;;36.15;16.75;;;2.80;88.90;;;;;;4983010;28;20045;-67
2021/12/07 12:46:58;;;;;;;35.75;15.65;;;2.60;88.40;;;;;;4982084;28;20045;-67
2021/12/07 12:49:40;;;;;;;33.65;15.77;;;2.60;88.90;;;;;;4983918;28;20541;-66
2021/12/07 12:52:06;;;;;;;37.88;16.73;;;2.30;89.40;;;;;;4986126;28;20609;-66
2021/12/07 12:54:45;;;;;;;36.42;16.67;;;2.30;90.10;;;;;;4983877;28;20045;-62
2021/12/07 12:57:14;;;;;;;39.08;16.88;;;2.20;90.20;;;;;;4983243;28;20038;-62
2021/12/07 12:59:43;;;;;;;34.20;15.85;;;2.10;90.70;;;;;;4973518;28;20041;-63
2021/12/07 13:02:10;;;;;;;36.92;16.50;;;2.10;90.80;;;;;;4983673;28;20030;-61
2021/12/07 13:04:36;;;;;;;33.75;16.77;;;2.20;90.60;;;;;;4983721;28;20035;-64
2021/12/07 13:09:45;;;;;;;38.40;15.88;;;2.60;90.40;;;;;;4983693;28;20089;-63
2021/12/07 13:12:19;;;;;;;36.38;15.15;;;2.80;90.10;;;;;;4983591;28;20390;-64
2021/12/07 13:14:57;;;;;;;38.95;15.75;;;2.90;89.10;;;;;;4982879;28;20042;-63
2021/12/07 13:17:31;;;;;;;36.58;15.82;;;2.90;88.00;;;;;;4980698;28;20034;-62
2021/12/07 13:20:11;;;;;;;32.83;15.77;;;3.00;87.90;;;;;;4984200;28;20038;-63
2021/12/07 13:22:55;;;;;;;32.38;15.57;;;3.10;87.60;;;;;;4984336;28;20041;-63
2021/12/07 13:25:31;;;;;;;33.92;16.55;;;3.10;87.90;;;;;;4982111;28;20068;-63
2021/12/07 13:28:10;;;;;;;36.97;15.60;;;3.30;86.80;;;;;;4983575;28;20045;-63
2021/12/07 13:30:48;;;;;;;31.20;14.75;;;3.30;87.20;;;;;;4997933;28;20069;-64
2021/12/07 13:33:16;;;;;;;29.10;14.15;;;3.30;85.30;;;;;;4982128;28;20031;-64
2021/12/07 13:35:43;;;;;;;28.75;13.38;;;3.20;85.40;;;;;;4984621;28;20026;-64
2021/12/07 13:38:20;;;;;;;30.15;15.13;;;3.10;85.90;;;;;;4985007;28;20041;-63
2021/12/07 13:40:47;;;;;;;30.55;13.90;;;3.10;87.20;;;;;;4984857;28;20042;-63
2021/12/07 13:43:29;;;;;;;33.65;14.68;;;3.10;86.40;;;;;;4983335;28;20492;-62
2021/12/07 13:46:28;;;;;;;31.42;13.90;;;3.10;87.00;;;;;;4983025;28;20041;-60
2021/12/07 13:49:09;;;;;;;29.10;13.27;;;3.20;86.70;;;;;;4937048;28;20466;-64
2021/12/07 13:51:36;;;;;;;30.17;13.38;;;3.30;86.50;;;;;;4983569;28;20049;-61
2021/12/07 13:54:04;;;;;;;31.08;14.32;;;3.30;85.80;;;;;;4983061;28;20501;-60
2021/12/07 13:56:38;;;;;;;34.13;16.00;;;3.30;85.00;;;;;;4982151;28;20030;-60
2021/12/07 13:59:13;;;;;;;28.13;12.90;;;3.20;85.70;;;;;;4981479;28;20670;-61
2021/12/07 14:01:46;;;;;;;30.80;13.98;;;3.10;86.10;;;;;;4982841;28;20045;-61
2021/12/07 14:04:12;;;;;;;31.05;14.23;;;3.10;85.50;;;;;;4979598;28;20078;-61
2021/12/07 14:06:44;;;;;;;29.83;14.93;;;3.10;86.70;;;;;;4983522;28;20134;-62
2021/12/07 14:09:10;;;;;;;27.33;13.18;;;3.10;85.40;;;;;;4983328;28;20030;-61
2021/12/07 14:11:39;;;;;;;33.83;15.93;;;3.10;85.70;;;;;;4983585;28;20061;-61
2021/12/07 14:14:11;;;;;;;32.55;14.35;;;3.00;86.30;;;;;;4982812;28;20471;-61
2021/12/07 14:16:37;;;;;;;30.25;14.75;;;3.00;86.30;;;;;;4985669;28;20046;-61
2021/12/07 14:19:03;;;;;;;33.33;14.88;;;3.00;86.50;;;;;;4982419;28;20022;-62
2021/12/07 14:21:29;;;;;;;30.85;15.25;;;3.10;86.90;;;;;;4983792;28;20022;-61
2021/12/07 14:24:04;;;;;;;33.28;14.30;;;3.10;86.00;;;;;;4982739;28;20034;-62
2021/12/07 14:26:36;;;;;;;32.22;15.13;;;3.00;86.90;;;;;;4982249;28;20572;-62
2021/12/07 14:29:06;;;;;;;32.72;14.02;;;3.00;86.80;;;;;;4986486;28;20034;-62
2021/12/07 14:31:40;;;;;;;31.80;13.63;;;2.90;86.90;;;;;;4987063;28;20049;-62
2021/12/07 14:34:19;;;;;;;30.88;15.45;;;3.00;87.00;;;;;;4988938;28;20050;-61